createdAt,value
2023-04-03T00:02:01.303Z,-0.50
2023-04-03T00:04:33.082Z,-0.07
2023-04-03T00:07:04.752Z,-0.07
2023-04-03T00:09:36.367Z,-0.24
2023-04-03T00:12:07.790Z,-0.09
2023-04-03T00:14:39.379Z,0.08
2023-04-03T00:17:11.032Z,0.09
2023-04-03T00:19:42.595Z,0.00
2023-04-03T00:22:13.959Z,-0.13
2023-04-03T00:24:45.707Z,0.02
2023-04-03T00:27:17.461Z,-0.06
2023-04-03T00:29:49.038Z,-0.09
2023-04-03T00:32:20.374Z,-0.09
2023-04-03T00:34:51.935Z,-0.15
2023-04-03T00:37:23.537Z,-0.36
2023-04-03T00:39:54.922Z,-0.24
2023-04-03T00:42:26.371Z,-0.26
2023-04-03T00:44:57.736Z,-0.20
2023-04-03T00:47:31.768Z,-0.40
2023-04-03T00:50:04.580Z,-0.39
2023-04-03T00:52:38.485Z,-0.41
2023-04-03T00:55:10.998Z,-0.58
2023-04-03T00:57:43.094Z,-0.97
2023-04-03T01:00:19.601Z,-0.59
2023-04-03T01:02:52.527Z,-0.76
2023-04-03T01:05:23.937Z,-0.57
2023-04-03T01:07:55.982Z,-1.09
2023-04-03T01:10:27.418Z,-0.88
2023-04-03T01:13:01.013Z,-0.53
2023-04-03T01:15:36.003Z,-0.62
2023-04-03T01:18:10.980Z,-0.94
2023-04-03T01:21:07.831Z,-0.91
2023-04-03T01:23:58.847Z,-0.75
2023-04-03T01:26:30.750Z,-0.69
2023-04-03T01:29:02.984Z,-0.98
2023-04-03T01:31:55.216Z,-0.78
2023-04-03T01:34:28.025Z,-1.25
2023-04-03T01:36:59.467Z,-0.98
2023-04-03T01:39:31.148Z,-0.96
2023-04-03T01:42:02.599Z,-1.03
2023-04-03T01:44:34.260Z,-0.99
2023-04-03T01:47:07.787Z,-1.00
2023-04-03T01:49:39.317Z,-1.01
2023-04-03T01:52:10.850Z,-0.92
2023-04-03T01:54:42.187Z,-1.57
2023-04-03T01:57:15.936Z,-1.08
2023-04-03T01:59:47.468Z,-1.04
2023-04-03T02:02:20.074Z,-1.56
2023-04-03T02:04:51.701Z,-0.88
2023-04-03T02:07:23.338Z,-0.99
2023-04-03T02:09:54.733Z,-0.94
2023-04-03T02:12:26.334Z,-1.46
2023-04-03T02:14:57.693Z,-1.00
2023-04-03T02:17:29.126Z,-0.86
2023-04-03T02:20:00.649Z,-1.06
2023-04-03T02:22:32.378Z,-1.07
2023-04-03T02:25:04.013Z,-0.92
2023-04-03T02:27:36.485Z,-0.97
2023-04-03T02:30:10.536Z,-1.07
2023-04-03T02:32:43.888Z,-1.18
2023-04-03T02:35:15.770Z,-1.04
2023-04-03T02:37:47.444Z,-1.36
2023-04-03T02:40:19.178Z,-0.97
2023-04-03T02:42:50.905Z,-1.13
2023-04-03T02:45:22.286Z,-1.11
2023-04-03T02:47:54.036Z,-1.77
2023-04-03T02:50:25.672Z,-1.77
2023-04-03T02:52:57.040Z,-1.48
2023-04-03T02:55:28.500Z,-1.09
2023-04-03T02:57:59.914Z,-1.13
2023-04-03T03:00:31.719Z,-1.15
2023-04-03T03:03:03.314Z,-1.14
2023-04-03T03:05:34.849Z,-1.48
2023-04-03T03:08:06.328Z,-1.20
2023-04-03T03:10:38.199Z,-1.17
2023-04-03T03:13:10.210Z,-1.27
2023-04-03T03:15:41.733Z,-1.36
2023-04-03T03:18:13.241Z,-1.55
2023-04-03T03:20:45.161Z,-1.37
2023-04-03T03:23:16.765Z,-1.45
2023-04-03T03:25:48.156Z,-1.86
2023-04-03T03:28:19.504Z,-1.21
2023-04-03T03:30:51.395Z,-1.89
2023-04-03T03:33:23.046Z,-1.59
2023-04-03T03:35:55.924Z,-1.59
2023-04-03T03:38:27.460Z,-1.42
2023-04-03T03:40:58.985Z,-1.96
2023-04-03T03:43:30.962Z,-1.54
2023-04-03T03:46:02.493Z,-1.41
2023-04-03T03:48:34.348Z,-1.51
2023-04-03T03:51:06.112Z,-1.43
2023-04-03T03:53:37.552Z,-1.55
2023-04-03T03:56:09.456Z,-1.35
2023-04-03T03:58:41.079Z,-1.42
2023-04-03T04:01:12.685Z,-1.41
2023-04-03T04:03:44.175Z,-1.45
2023-04-03T04:06:15.995Z,-1.50
2023-04-03T04:08:47.567Z,-1.62
2023-04-03T04:11:19.716Z,-1.92
2023-04-03T04:13:51.313Z,-1.87
2023-04-03T04:16:22.827Z,-1.44
2023-04-03T04:18:54.282Z,-1.49
2023-04-03T04:21:26.014Z,-1.37
2023-04-03T04:23:57.628Z,-1.43
2023-04-03T04:26:29.105Z,-1.66
2023-04-03T04:29:00.877Z,-1.45
2023-04-03T04:31:32.678Z,-1.35
2023-04-03T04:34:04.090Z,-1.46
2023-04-03T04:36:35.794Z,-1.52
2023-04-03T04:39:07.450Z,-1.89
2023-04-03T04:41:38.845Z,-1.45
2023-04-03T04:44:10.633Z,-1.30
2023-04-03T04:46:42.213Z,-1.55
2023-04-03T04:49:13.644Z,-1.32
2023-04-03T04:51:52.033Z,-1.44
2023-04-03T04:54:23.987Z,-1.41
2023-04-03T04:56:55.463Z,-1.30
2023-04-03T04:59:26.959Z,-1.34
2023-04-03T05:01:58.402Z,-1.53
2023-04-03T05:04:29.899Z,-1.23
2023-04-03T05:07:01.307Z,-1.31
2023-04-03T05:09:32.614Z,-1.44
2023-04-03T05:12:04.336Z,-1.22
2023-04-03T05:14:36.174Z,-1.26
2023-04-03T05:17:07.880Z,-1.26
2023-04-03T05:19:39.447Z,-1.24
2023-04-03T05:22:10.984Z,-1.22
2023-04-03T05:24:42.682Z,-1.32
2023-04-03T05:27:14.343Z,-0.95
2023-04-03T05:29:45.888Z,-1.05
2023-04-03T05:32:17.479Z,-0.89
2023-04-03T05:34:49.059Z,-0.85
2023-04-03T05:37:21.303Z,-1.18
2023-04-03T05:39:52.828Z,-0.74
2023-04-03T05:42:24.558Z,-0.62
2023-04-03T05:44:56.098Z,-0.87
2023-04-03T05:47:27.837Z,-0.90
2023-04-03T05:49:59.333Z,-0.41
2023-04-03T05:52:34.456Z,-0.10
2023-04-03T05:55:06.418Z,1.58
2023-04-03T05:57:37.920Z,2.38
2023-04-03T06:00:13.605Z,2.76
2023-04-03T06:02:45.255Z,3.02
2023-04-03T06:05:16.844Z,3.02
2023-04-03T06:07:50.609Z,3.00
2023-04-03T06:10:22.325Z,3.05
2023-04-03T06:12:53.978Z,2.93
2023-04-03T06:15:26.039Z,2.86
2023-04-03T06:17:57.922Z,2.80
2023-04-03T06:20:29.290Z,2.61
2023-04-03T06:23:01.164Z,2.59
2023-04-03T06:25:32.696Z,2.57
2023-04-03T06:28:04.095Z,2.48
2023-04-03T06:30:36.210Z,2.48
2023-04-03T06:33:07.823Z,2.32
2023-04-03T06:35:39.517Z,2.47
2023-04-03T06:38:12.135Z,2.66
2023-04-03T06:40:44.748Z,2.70
2023-04-03T06:43:16.173Z,2.82
2023-04-03T06:45:47.886Z,2.51
2023-04-03T06:48:19.361Z,3.06
2023-04-03T06:50:51.074Z,3.14
2023-04-03T06:53:22.564Z,2.90
2023-04-03T06:55:54.008Z,3.43
2023-04-03T06:58:25.494Z,3.63
2023-04-03T07:00:57.070Z,3.80
2023-04-03T07:03:28.786Z,4.02
2023-04-03T07:06:00.541Z,4.12
2023-04-03T07:08:33.165Z,4.37
2023-04-03T07:11:05.353Z,4.45
2023-04-03T07:13:37.281Z,4.13
2023-04-03T07:16:09.893Z,4.71
2023-04-03T07:18:42.370Z,4.88
2023-04-03T07:21:13.969Z,4.87
2023-04-03T07:23:45.832Z,4.49
2023-04-03T07:26:17.190Z,5.00
2023-04-03T07:28:49.636Z,5.13
2023-04-03T07:31:21.550Z,4.99
2023-04-03T07:33:53.047Z,4.86
2023-04-03T07:36:25.196Z,4.67
2023-04-03T07:38:57.192Z,5.09
2023-04-03T07:41:29.552Z,5.25
2023-04-03T07:44:01.580Z,5.30
2023-04-03T07:46:33.295Z,5.03
2023-04-03T07:49:05.399Z,5.26
2023-04-03T07:51:36.897Z,5.54
2023-04-03T07:54:08.242Z,4.93
2023-04-03T07:56:39.743Z,5.40
2023-04-03T07:59:12.457Z,5.68
2023-04-03T08:01:43.841Z,5.68
2023-04-03T08:04:15.765Z,6.15
2023-04-03T08:06:47.407Z,6.39
2023-04-03T08:09:19.569Z,6.61
2023-04-03T08:11:54.056Z,6.94
2023-04-03T08:14:25.562Z,6.96
2023-04-03T08:16:57.523Z,6.77
2023-04-03T08:19:28.900Z,6.45
2023-04-03T08:22:03.858Z,6.86
2023-04-03T08:24:36.440Z,7.00
2023-04-03T08:27:08.926Z,7.16
2023-04-03T08:29:41.012Z,7.20
2023-04-03T08:32:12.394Z,7.20
2023-04-03T08:34:43.731Z,7.19
2023-04-03T08:37:16.979Z,6.93
2023-04-03T08:39:48.767Z,7.18
2023-04-03T08:42:42.931Z,7.41
2023-04-03T08:45:26.691Z,7.33
2023-04-03T08:48:13.295Z,7.24
2023-04-03T08:50:48.676Z,7.33
2023-04-03T08:53:27.665Z,7.13
2023-04-03T08:56:01.440Z,6.93
2023-04-03T08:58:53.770Z,7.42
2023-04-03T09:01:35.383Z,7.21
2023-04-03T09:04:14.159Z,7.39
2023-04-03T09:06:50.862Z,7.84
2023-04-03T09:09:41.889Z,7.96
2023-04-03T09:12:27.539Z,7.75
2023-04-03T09:15:14.323Z,7.74
2023-04-03T09:17:46.183Z,7.77
2023-04-03T09:20:41.390Z,7.74
2023-04-03T09:23:28.774Z,7.23
2023-04-03T09:26:10.062Z,7.50
2023-04-03T09:28:50.471Z,7.55
2023-04-03T09:31:28.069Z,7.75
2023-04-03T09:34:04.452Z,8.09
2023-04-03T09:36:40.934Z,8.26
2023-04-03T09:39:22.846Z,8.28
2023-04-03T09:42:16.298Z,7.88
2023-04-03T09:45:02.035Z,8.36
2023-04-03T09:47:36.214Z,8.51
2023-04-03T09:50:13.857Z,8.73
2023-04-03T09:52:47.573Z,8.82
2023-04-03T09:55:22.864Z,9.24
2023-04-03T09:58:00.479Z,9.20
2023-04-03T10:00:36.752Z,9.27
2023-04-03T10:03:27.436Z,8.71
2023-04-03T10:05:59.939Z,8.75
2023-04-03T10:08:34.724Z,9.13
2023-04-03T10:11:17.816Z,9.54
2023-04-03T10:14:17.454Z,9.86
2023-04-03T10:17:16.039Z,9.67
2023-04-03T10:20:08.563Z,9.76
2023-04-03T10:22:56.995Z,9.84
2023-04-03T10:25:41.873Z,9.05
2023-04-03T10:28:32.138Z,9.01
2023-04-03T10:31:03.550Z,8.83
2023-04-03T10:33:34.963Z,8.73
2023-04-03T10:36:38.399Z,8.74
2023-04-03T10:39:29.351Z,8.80
2023-04-03T10:42:17.297Z,8.75
2023-04-03T10:45:24.460Z,9.35
2023-04-03T10:48:14.985Z,9.67
2023-04-03T10:51:19.886Z,10.16
2023-04-03T10:54:12.172Z,10.38
2023-04-03T10:57:04.492Z,10.49
2023-04-03T10:59:55.252Z,10.44
2023-04-03T11:02:32.413Z,10.13
2023-04-03T11:05:40.840Z,10.33
2023-04-03T11:08:31.797Z,10.26
2023-04-03T11:11:26.536Z,10.04
2023-04-03T11:14:03.520Z,9.55
2023-04-03T11:16:51.126Z,9.56
2023-04-03T11:19:58.100Z,9.49
2023-04-03T11:22:42.695Z,9.25
2023-04-03T11:25:14.039Z,9.39
2023-04-03T11:27:50.524Z,9.31
2023-04-03T11:30:27.137Z,8.94
2023-04-03T11:33:04.686Z,9.02
2023-04-03T11:35:36.903Z,8.64
2023-04-03T11:38:20.970Z,8.43
2023-04-03T11:40:53.848Z,8.56
2023-04-03T11:43:29.598Z,9.20
2023-04-03T11:46:06.179Z,9.25
2023-04-03T11:48:46.314Z,9.78
2023-04-03T11:51:29.763Z,9.84
2023-04-03T11:54:44.525Z,9.81
2023-04-03T11:57:46.940Z,9.80
2023-04-03T12:00:52.351Z,9.85
2023-04-03T12:03:24.034Z,10.08
2023-04-03T12:06:17.710Z,9.59
2023-04-03T12:08:53.961Z,9.87
2023-04-03T12:11:29.844Z,9.80
2023-04-03T12:14:01.336Z,9.61
2023-04-03T12:16:38.781Z,9.55
2023-04-03T12:19:16.913Z,9.56
2023-04-03T12:21:51.662Z,9.75
2023-04-03T12:24:40.239Z,9.71
2023-04-03T12:27:35.409Z,10.22
2023-04-03T12:30:23.544Z,10.54
2023-04-03T12:33:13.522Z,10.23
2023-04-03T12:35:55.966Z,10.69
2023-04-03T12:38:50.482Z,10.32
2023-04-03T12:41:39.165Z,10.14
2023-04-03T12:44:27.155Z,9.58
2023-04-03T12:47:02.845Z,8.84
2023-04-03T12:49:39.715Z,9.20
2023-04-03T12:52:34.150Z,9.60
2023-04-03T12:55:19.358Z,9.94
2023-04-03T12:57:50.774Z,9.94
2023-04-03T13:00:30.530Z,10.15
2023-04-03T13:03:05.313Z,10.39
2023-04-03T13:05:37.440Z,10.42
2023-04-03T13:08:16.824Z,10.45
2023-04-03T13:11:01.025Z,11.10
2023-04-03T13:13:32.719Z,11.52
2023-04-03T13:16:11.782Z,11.58
2023-04-03T13:18:43.184Z,11.24
2023-04-03T13:21:24.912Z,11.19
2023-04-03T13:24:13.894Z,11.13
2023-04-03T13:26:46.662Z,10.79
2023-04-03T13:29:30.937Z,10.24
2023-04-03T13:32:06.892Z,10.37
2023-04-03T13:34:45.893Z,10.29
2023-04-03T13:37:28.305Z,10.26
2023-04-03T13:40:08.698Z,9.81
2023-04-03T13:42:42.437Z,9.99
2023-04-03T13:45:31.323Z,9.97
2023-04-03T13:50:58.889Z,10.97
2023-04-03T13:53:32.704Z,10.98
2023-04-03T13:56:03.977Z,10.67
2023-04-03T13:58:37.190Z,10.21
2023-04-03T14:01:23.521Z,9.81
2023-04-03T14:04:01.873Z,9.35
2023-04-03T14:06:34.593Z,9.54
2023-04-03T14:09:06.283Z,9.71
2023-04-03T14:11:38.278Z,10.11
2023-04-03T14:14:25.524Z,10.60
2023-04-03T14:17:03.788Z,10.52
2023-04-03T14:19:36.692Z,10.80
2023-04-03T14:22:26.482Z,10.44
2023-04-03T14:24:58.463Z,9.86
2023-04-03T14:27:40.535Z,9.95
2023-04-03T14:30:21.868Z,9.24
2023-04-03T14:32:53.374Z,9.18
2023-04-03T14:35:26.049Z,9.50
2023-04-03T14:37:57.488Z,9.45
2023-04-03T14:40:28.953Z,9.18
2023-04-03T14:43:00.451Z,9.41
2023-04-03T14:45:31.848Z,9.30
2023-04-03T14:48:04.065Z,9.29
2023-04-03T14:50:35.481Z,9.52
2023-04-03T14:53:07.042Z,9.44
2023-04-03T14:55:38.398Z,9.55
2023-04-03T14:58:14.408Z,9.69
2023-04-03T15:00:45.906Z,9.48
2023-04-03T15:03:21.531Z,9.42
2023-04-03T15:05:53.060Z,9.04
2023-04-03T15:08:30.495Z,8.70
2023-04-03T15:11:02.240Z,8.99
2023-04-03T15:13:34.041Z,9.26
2023-04-03T15:16:11.776Z,9.33
2023-04-03T15:18:45.730Z,9.33
2023-04-03T15:21:17.595Z,9.14
2023-04-03T15:23:52.215Z,9.05
2023-04-03T15:26:24.038Z,9.02
2023-04-03T15:28:55.605Z,8.69
2023-04-03T15:31:26.979Z,8.84
2023-04-03T15:33:58.300Z,8.67
2023-04-03T15:36:34.429Z,8.96
2023-04-03T15:39:06.277Z,9.09
2023-04-03T15:41:37.669Z,8.81
2023-04-03T15:44:08.990Z,8.91
2023-04-03T15:46:40.546Z,8.77
2023-04-03T15:49:12.558Z,8.38
2023-04-03T15:51:44.228Z,8.63
2023-04-03T15:54:16.804Z,8.55
2023-04-03T15:56:48.155Z,8.31
2023-04-03T15:59:19.825Z,8.28
2023-04-03T16:01:52.254Z,8.20
2023-04-03T16:04:23.702Z,8.14
2023-04-03T16:06:55.199Z,8.18
2023-04-03T16:09:27.119Z,8.00
2023-04-03T16:11:58.431Z,7.66
2023-04-03T16:14:31.250Z,7.91
2023-04-03T16:17:02.723Z,7.79
2023-04-03T16:19:34.227Z,7.80
2023-04-03T16:22:05.781Z,7.44
2023-04-03T16:24:37.167Z,7.60
2023-04-03T16:27:08.530Z,7.35
2023-04-03T16:29:39.910Z,7.48
2023-04-03T16:32:12.087Z,7.13
2023-04-03T16:34:43.881Z,7.39
2023-04-03T16:37:16.652Z,7.32
2023-04-03T16:39:48.275Z,7.14
2023-04-03T16:42:19.812Z,6.65
2023-04-03T16:44:51.278Z,6.57
2023-04-03T16:47:22.770Z,6.97
2023-04-03T16:49:54.244Z,6.82
2023-04-03T16:52:25.731Z,6.83
2023-04-03T16:54:59.768Z,6.09
2023-04-03T16:57:32.292Z,6.68
2023-04-03T17:00:04.842Z,6.60
2023-04-03T17:02:36.221Z,6.30
2023-04-03T17:05:08.139Z,6.03
2023-04-03T17:07:39.506Z,6.44
2023-04-03T17:10:12.183Z,6.38
2023-04-03T17:12:43.616Z,6.24
2023-04-03T17:15:15.142Z,6.25
2023-04-03T17:17:48.427Z,6.13
2023-04-03T17:20:20.577Z,5.68
2023-04-03T17:22:52.032Z,6.03
2023-04-03T17:25:23.392Z,5.54
2023-04-03T17:27:54.773Z,5.95
2023-04-03T17:30:26.242Z,5.68
2023-04-03T17:32:57.633Z,5.74
2023-04-03T17:35:30.648Z,5.66
2023-04-03T17:40:33.429Z,5.51
2023-04-03T17:43:04.869Z,5.41
2023-04-03T17:45:36.231Z,5.45
2023-04-03T17:48:07.770Z,5.34
2023-04-03T17:50:39.252Z,5.23
2023-04-03T17:53:11.010Z,5.13
2023-04-03T17:55:42.322Z,5.03
2023-04-03T17:58:13.682Z,5.07
2023-04-03T18:00:45.064Z,4.95
2023-04-03T18:03:16.432Z,4.30
2023-04-03T18:05:47.840Z,4.55
2023-04-03T18:08:19.172Z,4.70
2023-04-03T18:10:50.840Z,4.54
2023-04-03T18:13:22.355Z,4.41
2023-04-03T18:15:53.733Z,4.50
2023-04-03T18:18:25.134Z,4.34
2023-04-03T18:20:56.549Z,4.11
2023-04-03T18:23:30.923Z,4.17
2023-04-03T18:26:03.134Z,4.29
2023-04-03T18:28:34.904Z,4.09
2023-04-03T18:31:10.722Z,4.01
2023-04-03T18:33:43.506Z,4.03
2023-04-03T18:38:51.275Z,4.00
2023-04-03T18:41:28.302Z,3.89
2023-04-03T18:44:03.516Z,3.70
2023-04-03T18:49:14.122Z,3.56
2023-04-03T18:51:47.178Z,3.60
2023-04-03T18:54:20.413Z,3.45
2023-04-03T18:56:52.072Z,3.39
2023-04-03T18:59:24.668Z,3.42
2023-04-03T19:01:56.406Z,3.08
2023-04-03T19:04:29.149Z,3.36
2023-04-03T19:07:03.886Z,3.16
2023-04-03T19:09:35.785Z,3.21
2023-04-03T19:12:07.368Z,3.19
2023-04-03T19:14:39.058Z,3.09
2023-04-03T19:17:10.381Z,2.93
2023-04-03T19:19:41.754Z,3.03
2023-04-03T19:22:14.165Z,2.90
2023-04-03T19:24:46.575Z,2.91
2023-04-03T19:27:17.980Z,2.88
2023-04-03T19:29:50.364Z,2.23
2023-04-03T19:32:21.719Z,2.66
2023-04-03T19:34:53.199Z,2.54
2023-04-03T19:37:25.449Z,2.44
2023-04-03T19:39:56.828Z,2.41
2023-04-03T19:42:29.906Z,2.43
2023-04-03T19:45:02.091Z,2.30
2023-04-03T19:47:35.531Z,2.24
2023-04-03T19:50:07.484Z,1.83
2023-04-03T19:52:39.154Z,2.16
2023-04-03T19:55:11.038Z,2.19
2023-04-03T19:57:42.691Z,1.74
2023-04-03T20:00:14.663Z,1.96
2023-04-03T20:02:46.117Z,1.90
2023-04-03T20:05:17.879Z,2.03
2023-04-03T20:07:49.855Z,1.99
2023-04-03T20:10:21.851Z,1.89
2023-04-03T20:12:53.236Z,1.90
2023-04-03T20:15:26.135Z,1.74
2023-04-03T20:17:57.502Z,1.72
2023-04-03T20:20:28.886Z,1.72
2023-04-03T20:23:01.035Z,1.65
2023-04-03T20:28:06.966Z,1.47
2023-04-03T20:30:39.828Z,1.63
2023-04-03T20:33:12.053Z,1.63
2023-04-03T20:35:43.492Z,1.52
2023-04-03T20:38:15.942Z,1.65
2023-04-03T20:40:47.329Z,1.49
2023-04-03T20:43:19.478Z,1.53
2023-04-03T20:45:51.439Z,1.11
2023-04-03T20:48:23.987Z,1.30
2023-04-03T20:50:55.902Z,1.30
2023-04-03T20:53:27.570Z,1.24
2023-04-03T20:56:01.050Z,1.06
2023-04-03T20:58:35.100Z,1.03
2023-04-03T21:01:14.947Z,1.06
2023-04-03T21:03:47.197Z,0.45
2023-04-03T21:06:56.674Z,1.05
2023-04-03T21:10:05.315Z,1.00
2023-04-03T21:13:14.468Z,0.91
2023-04-03T21:15:55.257Z,0.54
2023-04-03T21:18:55.434Z,0.54
2023-04-03T21:21:27.963Z,0.14
2023-04-03T21:24:01.298Z,0.00
2023-04-03T21:26:36.603Z,0.46
2023-04-03T21:29:08.737Z,0.56
2023-04-03T21:31:58.965Z,0.02
2023-04-03T21:34:31.889Z,0.04
2023-04-03T21:37:04.733Z,0.54
2023-04-03T21:39:36.600Z,0.35
2023-04-03T21:42:08.268Z,0.49
2023-04-03T21:44:40.659Z,0.49
2023-04-03T21:47:12.411Z,0.33
2023-04-03T21:49:44.078Z,-0.10
2023-04-03T21:52:15.555Z,0.17
2023-04-03T21:54:47.312Z,-0.14
2023-04-03T21:57:19.836Z,0.07
2023-04-03T21:59:52.452Z,0.12
2023-04-03T22:02:26.268Z,0.00
2023-04-03T22:04:58.293Z,0.00
2023-04-03T22:07:29.713Z,-0.51
2023-04-03T22:10:01.398Z,0.08
2023-04-03T22:12:32.758Z,-0.17
2023-04-03T22:15:04.573Z,0.05
2023-04-03T22:17:35.939Z,-0.11
2023-04-03T22:20:08.133Z,-0.14
2023-04-03T22:22:39.713Z,-0.24
2023-04-03T22:25:11.520Z,-0.36
2023-04-03T22:27:42.813Z,-0.29
2023-04-03T22:30:14.452Z,-0.37
2023-04-03T22:32:46.184Z,-0.45
2023-04-03T22:35:17.486Z,-0.82
2023-04-03T22:37:48.823Z,-0.55
2023-04-03T22:40:20.188Z,-0.89
2023-04-03T22:42:51.570Z,-0.62
2023-04-03T22:45:24.152Z,-0.64
2023-04-03T22:47:58.614Z,-0.88
2023-04-03T22:50:30.175Z,-0.96
2023-04-03T22:53:01.530Z,-0.81
2023-04-03T22:55:33.247Z,-0.73
2023-04-03T22:58:05.732Z,-0.94
2023-04-03T23:00:37.136Z,-1.43
2023-04-03T23:03:10.848Z,-1.11
2023-04-03T23:05:42.435Z,-0.88
2023-04-03T23:08:13.767Z,-1.13
2023-04-03T23:10:46.146Z,-0.85
2023-04-03T23:13:17.461Z,-0.85
2023-04-03T23:15:56.313Z,-0.83
2023-04-03T23:18:30.354Z,-1.17
2023-04-03T23:21:03.529Z,-0.79
2023-04-03T23:23:35.582Z,-1.50
2023-04-03T23:26:09.305Z,-0.96
2023-04-03T23:28:41.822Z,-1.06
2023-04-03T23:31:13.339Z,-0.88
2023-04-03T23:33:44.888Z,-0.90
2023-04-03T23:36:16.882Z,-0.84
2023-04-03T23:38:48.325Z,-0.95
2023-04-03T23:41:19.818Z,-1.04
2023-04-03T23:43:51.357Z,-0.86
2023-04-03T23:46:22.708Z,-1.43
2023-04-03T23:48:54.027Z,-1.29
2023-04-03T23:51:25.516Z,-0.85
2023-04-03T23:53:56.817Z,-0.73
2023-04-03T23:56:28.526Z,-0.71
2023-04-03T23:59:00.111Z,-0.83
